createdAt,value
2018-09-21T00:02:15.040Z,99.90
2018-09-21T00:04:43.364Z,99.90
2018-09-21T00:07:11.664Z,99.90
2018-09-21T00:09:40.000Z,99.90
2018-09-21T00:12:08.308Z,99.90
2018-09-21T00:14:36.663Z,99.90
2018-09-21T00:17:04.956Z,99.90
2018-09-21T00:19:33.283Z,99.90
2018-09-21T00:22:01.572Z,99.90
2018-09-21T00:24:29.916Z,99.90
2018-09-21T00:26:58.212Z,99.90
2018-09-21T00:29:26.530Z,99.90
2018-09-21T00:31:54.824Z,99.90
2018-09-21T00:34:23.142Z,99.90
2018-09-21T00:36:51.440Z,99.90
2018-09-21T00:39:19.784Z,99.90
2018-09-21T00:41:48.089Z,99.90
2018-09-21T00:44:16.396Z,99.90
2018-09-21T00:46:44.684Z,99.90
2018-09-21T00:49:13.003Z,99.90
2018-09-21T00:51:41.304Z,99.90
2018-09-21T00:54:09.624Z,99.90
2018-09-21T00:56:37.915Z,99.90
2018-09-21T00:59:06.228Z,99.90
2018-09-21T01:01:34.528Z,99.90
2018-09-21T01:04:02.848Z,99.90
2018-09-21T01:06:31.143Z,99.90
2018-09-21T01:08:59.463Z,99.90
2018-09-21T01:11:27.759Z,99.90
2018-09-21T01:13:56.076Z,99.90
2018-09-21T01:16:24.377Z,99.90
2018-09-21T01:18:52.766Z,99.90
2018-09-21T01:21:21.057Z,99.90
2018-09-21T01:23:49.368Z,99.90
2018-09-21T01:26:17.672Z,99.90
2018-09-21T01:28:45.988Z,99.90
2018-09-21T01:31:14.280Z,99.90
2018-09-21T01:33:42.615Z,99.90
2018-09-21T01:36:10.917Z,99.90
2018-09-21T01:38:39.232Z,99.90
2018-09-21T01:41:07.553Z,99.90
2018-09-21T01:43:35.856Z,99.90
2018-09-21T01:46:04.172Z,99.90
2018-09-21T01:48:32.471Z,99.90
2018-09-21T01:51:00.792Z,99.90
2018-09-21T01:53:29.119Z,99.90
2018-09-21T01:55:57.432Z,99.90
2018-09-21T01:58:25.730Z,99.90
2018-09-21T02:00:54.060Z,99.90
2018-09-21T02:03:22.364Z,99.90
2018-09-21T02:05:50.688Z,99.90
2018-09-21T02:08:19.027Z,99.90
2018-09-21T02:10:47.417Z,99.90
2018-09-21T02:13:15.716Z,99.90
2018-09-21T02:15:44.040Z,99.90
2018-09-21T02:18:12.334Z,99.90
2018-09-21T02:20:40.646Z,99.90
2018-09-21T02:23:08.936Z,99.90
2018-09-21T02:25:37.252Z,99.90
2018-09-21T02:28:05.547Z,99.90
2018-09-21T02:30:33.857Z,99.90
2018-09-21T02:33:02.156Z,99.90
2018-09-21T02:35:30.481Z,99.90
2018-09-21T02:37:58.796Z,99.90
2018-09-21T02:40:27.117Z,99.90
2018-09-21T02:42:55.423Z,99.90
2018-09-21T02:45:23.744Z,99.90
2018-09-21T02:47:52.056Z,99.90
2018-09-21T02:50:20.396Z,99.90
2018-09-21T02:52:48.692Z,99.90
2018-09-21T02:55:17.016Z,99.90
2018-09-21T02:57:45.324Z,99.90
2018-09-21T03:00:13.682Z,99.90
2018-09-21T03:02:41.966Z,99.90
2018-09-21T03:05:10.284Z,99.90
2018-09-21T03:07:38.579Z,99.90
2018-09-21T03:10:06.896Z,99.90
2018-09-21T03:12:35.196Z,99.90
2018-09-21T03:15:03.516Z,99.90
2018-09-21T03:17:31.812Z,99.90
2018-09-21T03:20:00.136Z,99.90
2018-09-21T03:22:28.438Z,99.90
2018-09-21T03:24:56.755Z,99.90
2018-09-21T03:27:25.060Z,99.90
2018-09-21T03:29:53.373Z,99.90
2018-09-21T03:32:21.659Z,99.90
2018-09-21T03:34:50.007Z,99.90
2018-09-21T03:37:18.306Z,99.90
2018-09-21T03:39:46.637Z,99.90
2018-09-21T03:42:14.940Z,99.90
2018-09-21T03:44:43.276Z,99.90
2018-09-21T03:47:11.572Z,99.90
2018-09-21T03:49:39.880Z,99.90
2018-09-21T03:52:08.216Z,99.90
2018-09-21T03:54:36.504Z,99.90
2018-09-21T03:57:04.820Z,99.90
2018-09-21T03:59:33.115Z,99.90
2018-09-21T04:02:01.433Z,99.90
2018-09-21T04:04:29.731Z,99.90
2018-09-21T04:06:58.055Z,99.90
2018-09-21T04:09:26.352Z,99.90
2018-09-21T04:11:54.679Z,99.90
2018-09-21T04:14:22.978Z,99.90
2018-09-21T04:16:51.296Z,99.90
2018-09-21T04:19:19.596Z,99.90
2018-09-21T04:21:47.939Z,99.90
2018-09-21T04:24:16.244Z,99.90
2018-09-21T04:26:44.563Z,99.90
2018-09-21T04:29:12.870Z,99.90
2018-09-21T04:31:41.188Z,99.90
2018-09-21T04:34:09.485Z,99.90
2018-09-21T04:36:37.800Z,99.90
2018-09-21T04:39:09.596Z,99.90
2018-09-21T04:41:38.207Z,99.90
2018-09-21T04:44:06.728Z,99.90
2018-09-21T04:46:35.048Z,99.90
2018-09-21T04:49:03.355Z,99.90
2018-09-21T04:51:31.660Z,99.90
2018-09-21T04:53:59.965Z,99.90
2018-09-21T04:56:28.290Z,99.90
2018-09-21T04:58:56.579Z,99.90
2018-09-21T05:01:25.146Z,99.90
2018-09-21T05:03:53.496Z,99.90
2018-09-21T05:06:21.912Z,99.90
2018-09-21T05:08:50.284Z,99.90
2018-09-21T05:11:18.721Z,99.90
2018-09-21T05:13:47.194Z,99.90
2018-09-21T05:16:15.488Z,99.90
2018-09-21T05:18:43.780Z,99.90
2018-09-21T05:21:12.096Z,99.90
2018-09-21T05:23:40.399Z,99.90
2018-09-21T05:26:08.761Z,99.90
2018-09-21T05:28:37.064Z,99.90
2018-09-21T05:31:05.385Z,99.90
2018-09-21T05:33:33.798Z,99.90
2018-09-21T05:36:02.120Z,99.90
2018-09-21T05:38:30.435Z,99.90
2018-09-21T05:40:58.759Z,99.90
2018-09-21T05:43:27.049Z,99.90
2018-09-21T05:45:55.380Z,99.90
2018-09-21T05:48:23.673Z,99.90
2018-09-21T05:50:52.024Z,99.90
2018-09-21T05:53:20.316Z,99.90
2018-09-21T05:55:48.624Z,99.90
2018-09-21T05:58:16.920Z,99.90
2018-09-21T06:00:45.223Z,99.90
2018-09-21T06:03:13.540Z,99.90
2018-09-21T06:05:41.824Z,99.90
2018-09-21T06:08:10.210Z,99.90
2018-09-21T06:10:38.512Z,99.90
2018-09-21T06:13:06.851Z,99.90
2018-09-21T06:15:35.142Z,99.90
2018-09-21T06:18:03.470Z,99.90
2018-09-21T06:20:31.829Z,99.90
2018-09-21T06:23:00.148Z,99.90
2018-09-21T06:25:28.459Z,99.90
2018-09-21T06:27:56.815Z,99.90
2018-09-21T06:30:25.104Z,99.90
2018-09-21T06:32:53.420Z,99.90
2018-09-21T06:35:21.707Z,99.90
2018-09-21T06:37:50.007Z,99.90
2018-09-21T06:40:18.322Z,99.90
2018-09-21T06:42:46.632Z,99.90
2018-09-21T06:45:14.924Z,99.90
2018-09-21T06:47:43.248Z,99.90
2018-09-21T06:50:11.544Z,99.90
2018-09-21T06:52:39.860Z,99.90
2018-09-21T06:55:08.160Z,99.90
2018-09-21T06:57:36.468Z,99.90
2018-09-21T07:00:04.817Z,99.90
2018-09-21T07:02:33.133Z,99.90
2018-09-21T07:05:06.768Z,99.90
2018-09-21T07:07:35.100Z,99.90
2018-09-21T07:10:03.447Z,99.90
2018-09-21T07:12:31.743Z,99.90
2018-09-21T07:15:00.024Z,99.90
2018-09-21T07:17:28.333Z,99.90
2018-09-21T07:19:56.624Z,99.90
2018-09-21T07:22:24.989Z,99.90
2018-09-21T07:24:53.283Z,99.90
2018-09-21T07:27:21.655Z,99.90
2018-09-21T07:29:49.943Z,99.90
2018-09-21T07:32:18.255Z,99.90
2018-09-21T07:34:46.544Z,99.90
2018-09-21T07:37:14.852Z,99.90
2018-09-21T07:39:43.172Z,99.90
2018-09-21T07:42:11.501Z,99.90
2018-09-21T07:44:39.857Z,99.90
2018-09-21T07:47:08.688Z,99.90
2018-09-21T07:49:36.999Z,99.90
2018-09-21T07:52:05.304Z,99.90
2018-09-21T07:54:33.594Z,99.90
2018-09-21T07:57:01.904Z,99.90
2018-09-21T07:59:30.276Z,99.90
2018-09-21T08:01:59.056Z,99.90
2018-09-21T08:04:27.632Z,99.90
2018-09-21T08:06:55.994Z,99.90
2018-09-21T08:09:24.304Z,99.90
2018-09-21T08:11:52.622Z,99.90
2018-09-21T08:14:20.920Z,99.90
2018-09-21T08:16:49.239Z,99.90
2018-09-21T08:19:17.556Z,99.90
2018-09-21T08:21:45.852Z,99.90
2018-09-21T08:24:14.165Z,99.90
2018-09-21T08:26:42.513Z,99.90
2018-09-21T08:29:10.787Z,99.90
2018-09-21T08:31:39.076Z,99.90
2018-09-21T08:34:07.417Z,99.90
2018-09-21T08:36:35.704Z,99.90
2018-09-21T08:39:05.752Z,99.90
2018-09-21T08:41:34.041Z,99.90
2018-09-21T08:44:02.352Z,99.90
2018-09-21T08:46:30.652Z,99.90
2018-09-21T08:48:58.956Z,99.90
2018-09-21T08:51:27.242Z,99.90
2018-09-21T08:53:55.547Z,99.90
2018-09-21T08:56:23.835Z,99.90
2018-09-21T08:58:52.152Z,99.90
2018-09-21T09:01:20.451Z,99.90
2018-09-21T09:03:48.792Z,99.90
2018-09-21T09:06:17.106Z,99.90
2018-09-21T09:08:45.423Z,99.90
2018-09-21T09:11:13.724Z,99.90
2018-09-21T09:13:42.134Z,99.90
2018-09-21T09:16:10.424Z,99.90
2018-09-21T09:18:38.727Z,99.90
2018-09-21T09:21:07.016Z,99.90
2018-09-21T09:23:35.364Z,99.90
2018-09-21T09:26:03.664Z,99.90
2018-09-21T09:28:31.976Z,99.90
2018-09-21T09:31:00.288Z,99.90
2018-09-21T09:33:28.600Z,99.90
2018-09-21T09:35:56.896Z,99.90
2018-09-21T09:38:25.224Z,99.90
2018-09-21T09:40:53.519Z,99.90
2018-09-21T09:43:21.892Z,99.90
2018-09-21T09:45:50.164Z,99.90
2018-09-21T09:48:18.481Z,99.90
2018-09-21T09:50:46.780Z,99.90
2018-09-21T09:53:15.096Z,99.90
2018-09-21T09:55:43.384Z,99.90
2018-09-21T09:58:11.749Z,99.90
2018-09-21T10:00:45.392Z,99.90
2018-09-21T10:03:13.708Z,99.90
2018-09-21T10:05:43.497Z,99.90
2018-09-21T10:08:12.872Z,99.90
2018-09-21T10:10:41.652Z,99.90
2018-09-21T10:13:10.471Z,99.90
2018-09-21T10:15:39.051Z,99.90
2018-09-21T10:18:07.424Z,99.90
2018-09-21T10:20:35.753Z,99.90
2018-09-21T10:23:04.131Z,99.90
2018-09-21T10:25:32.925Z,99.90
2018-09-21T10:28:01.378Z,99.90
2018-09-21T10:30:29.635Z,99.50
2018-09-21T10:32:57.968Z,98.80
2018-09-21T10:35:26.399Z,99.90
2018-09-21T10:37:54.849Z,99.50
2018-09-21T10:40:23.534Z,99.90
2018-09-21T10:42:51.908Z,99.40
2018-09-21T10:45:20.224Z,99.70
2018-09-21T10:47:48.511Z,99.90
2018-09-21T10:50:16.828Z,99.90
2018-09-21T10:52:45.244Z,99.90
2018-09-21T10:55:13.508Z,99.90
2018-09-21T10:57:41.904Z,99.90
2018-09-21T11:00:10.840Z,99.90
2018-09-21T11:02:39.432Z,99.90
2018-09-21T11:05:07.808Z,99.90
2018-09-21T11:07:36.113Z,99.90
2018-09-21T11:10:04.516Z,99.90
2018-09-21T11:12:32.852Z,99.90
2018-09-21T11:15:01.208Z,99.90
2018-09-21T11:17:29.495Z,99.90
2018-09-21T11:19:57.812Z,99.90
2018-09-21T11:22:26.104Z,99.90
2018-09-21T11:24:54.408Z,99.90
2018-09-21T11:27:22.730Z,99.90
2018-09-21T11:29:51.057Z,99.90
2018-09-21T11:32:19.348Z,99.90
2018-09-21T11:34:47.718Z,99.90
2018-09-21T11:37:16.028Z,99.90
2018-09-21T11:39:44.360Z,99.90
2018-09-21T11:42:12.667Z,99.90
2018-09-21T11:44:41.009Z,99.90
2018-09-21T11:47:09.407Z,99.90
2018-09-21T11:49:37.674Z,99.60
2018-09-21T11:52:05.969Z,99.90
2018-09-21T11:54:34.271Z,99.90
2018-09-21T11:57:02.559Z,99.70
2018-09-21T11:59:30.965Z,99.90
2018-09-21T12:01:59.260Z,99.90
2018-09-21T12:04:27.571Z,99.90
2018-09-21T12:06:55.860Z,99.90
2018-09-21T12:09:24.165Z,99.90
2018-09-21T12:11:52.464Z,99.50
2018-09-21T12:14:20.770Z,99.90
2018-09-21T12:16:49.075Z,99.90
2018-09-21T12:19:17.392Z,99.90
2018-09-21T12:21:45.692Z,99.90
2018-09-21T12:24:14.008Z,99.90
2018-09-21T12:26:42.303Z,99.90
2018-09-21T12:29:10.736Z,99.90
2018-09-21T12:31:39.023Z,99.60
2018-09-21T12:34:08.148Z,99.90
2018-09-21T12:36:36.477Z,99.90
2018-09-21T12:39:08.124Z,99.90
2018-09-21T12:41:36.417Z,99.30
2018-09-21T12:44:04.852Z,99.60
2018-09-21T12:46:33.151Z,99.40
2018-09-21T12:49:03.239Z,99.30
2018-09-21T12:51:32.208Z,99.20
2018-09-21T12:54:01.204Z,99.90
2018-09-21T12:56:29.530Z,99.90
2018-09-21T12:58:57.838Z,99.90
2018-09-21T13:01:26.149Z,99.90
2018-09-21T13:03:54.436Z,99.90
2018-09-21T13:06:22.804Z,99.90
2018-09-21T13:08:51.075Z,99.90
2018-09-21T13:11:19.383Z,99.90
2018-09-21T13:13:47.672Z,99.90
2018-09-21T13:16:15.985Z,99.90
2018-09-21T13:18:44.292Z,99.90
2018-09-21T13:21:12.600Z,99.90
2018-09-21T13:23:40.891Z,99.90
2018-09-21T13:26:09.247Z,99.90
2018-09-21T13:28:37.704Z,99.90
2018-09-21T13:31:06.007Z,99.90
2018-09-21T13:33:34.295Z,99.90
2018-09-21T13:36:02.604Z,99.90
2018-09-21T13:38:30.912Z,99.90
2018-09-21T13:40:59.224Z,99.90
2018-09-21T13:43:27.520Z,99.90
2018-09-21T13:45:55.834Z,99.90
2018-09-21T13:48:24.148Z,99.90
2018-09-21T13:50:52.464Z,99.90
2018-09-21T13:53:20.753Z,99.90
2018-09-21T13:55:49.081Z,99.90
2018-09-21T13:58:17.383Z,99.90
2018-09-21T14:00:45.697Z,99.90
2018-09-21T14:03:14.000Z,99.90
2018-09-21T14:05:42.309Z,99.90
2018-09-21T14:08:10.615Z,99.90
2018-09-21T14:10:38.932Z,99.90
2018-09-21T14:13:07.220Z,99.90
2018-09-21T14:15:35.531Z,99.90
2018-09-21T14:18:03.851Z,99.90
2018-09-21T14:20:32.164Z,99.90
2018-09-21T14:23:00.460Z,99.90
2018-09-21T14:25:28.788Z,99.90
2018-09-21T14:27:57.104Z,99.90
2018-09-21T14:30:25.432Z,99.90
2018-09-21T14:32:53.732Z,99.90
2018-09-21T14:35:22.144Z,99.90
2018-09-21T14:37:50.456Z,99.50
2018-09-21T14:40:18.803Z,98.80
2018-09-21T14:42:47.100Z,97.30
2018-09-21T14:45:15.452Z,96.40
2018-09-21T14:47:43.793Z,96.20
2018-09-21T14:50:12.085Z,96.60
2018-09-21T14:52:40.375Z,96.70
2018-09-21T14:55:08.971Z,96.30
2018-09-21T14:57:37.278Z,96.10
2018-09-21T15:00:05.603Z,93.90
2018-09-21T15:02:33.904Z,93.40
2018-09-21T15:05:02.234Z,92.40
2018-09-21T15:07:30.542Z,92.30
2018-09-21T15:09:58.832Z,92.60
2018-09-21T15:12:27.156Z,94.70
2018-09-21T15:14:55.448Z,92.20
2018-09-21T15:17:23.756Z,91.40
2018-09-21T15:19:52.052Z,90.70
2018-09-21T15:22:20.409Z,90.30
2018-09-21T15:24:48.688Z,90.40
2018-09-21T15:27:17.448Z,90.80
2018-09-21T15:29:45.852Z,90.60
2018-09-21T15:32:14.852Z,91.10
2018-09-21T15:34:43.636Z,91.60
2018-09-21T15:37:11.972Z,91.60
2018-09-21T15:39:40.287Z,92.20
2018-09-21T15:42:08.631Z,92.00
2018-09-21T15:44:36.963Z,91.50
2018-09-21T15:47:05.276Z,91.70
2018-09-21T15:49:33.637Z,91.40
2018-09-21T15:52:01.950Z,92.30
2018-09-21T15:54:30.248Z,92.60
2018-09-21T15:56:58.552Z,91.90
2018-09-21T15:59:26.848Z,92.60
2018-09-21T16:01:55.147Z,91.60
2018-09-21T16:04:23.447Z,92.30
2018-09-21T16:06:51.761Z,91.80
2018-09-21T16:09:20.052Z,93.90
2018-09-21T16:11:48.371Z,95.20
2018-09-21T16:14:16.742Z,98.20
2018-09-21T16:16:45.031Z,98.80
2018-09-21T16:19:13.332Z,99.90
2018-09-21T16:21:41.644Z,99.90
2018-09-21T16:24:09.985Z,99.90
2018-09-21T16:26:38.274Z,99.90
2018-09-21T16:29:06.584Z,99.90
2018-09-21T16:31:34.920Z,99.90
2018-09-21T16:34:03.214Z,99.90
2018-09-21T16:36:31.650Z,99.90
2018-09-21T16:39:00.088Z,99.90
2018-09-21T16:41:28.432Z,99.90
2018-09-21T16:43:56.956Z,99.90
2018-09-21T16:46:25.260Z,99.90
2018-09-21T16:48:53.551Z,99.90
2018-09-21T16:51:21.907Z,99.90
2018-09-21T16:53:50.296Z,99.90
2018-09-21T16:56:18.612Z,99.90
2018-09-21T16:58:46.993Z,99.90
2018-09-21T17:01:15.287Z,99.90
2018-09-21T17:03:43.588Z,99.90
2018-09-21T17:06:11.904Z,99.90
2018-09-21T17:08:40.196Z,99.90
2018-09-21T17:11:08.522Z,99.90
2018-09-21T17:13:36.832Z,99.90
2018-09-21T17:16:05.157Z,99.90
2018-09-21T17:18:33.448Z,99.90
2018-09-21T17:21:01.779Z,99.90
2018-09-21T17:23:30.076Z,99.90
2018-09-21T17:25:58.421Z,99.90
2018-09-21T17:28:26.736Z,99.90
2018-09-21T17:30:55.015Z,99.90
2018-09-21T17:33:23.320Z,99.90
2018-09-21T17:35:51.615Z,99.90
2018-09-21T17:38:19.957Z,99.90
2018-09-21T17:40:48.256Z,99.90
2018-09-21T17:43:16.565Z,99.90
2018-09-21T17:45:44.848Z,99.90
2018-09-21T17:48:13.172Z,99.90
2018-09-21T17:50:41.460Z,99.90
2018-09-21T17:53:09.836Z,99.90
2018-09-21T17:55:38.144Z,99.90
2018-09-21T17:58:06.464Z,99.90
2018-09-21T18:00:34.760Z,99.90
2018-09-21T18:03:03.184Z,99.90
2018-09-21T18:05:31.485Z,99.90
2018-09-21T18:07:59.804Z,99.90
2018-09-21T18:10:28.108Z,99.90
2018-09-21T18:12:56.425Z,99.90
2018-09-21T18:15:24.732Z,99.90
2018-09-21T18:17:53.047Z,99.90
2018-09-21T18:20:21.355Z,99.90
2018-09-21T18:22:49.687Z,99.90
2018-09-21T18:25:18.000Z,99.90
2018-09-21T18:27:46.324Z,99.90
2018-09-21T18:30:14.628Z,99.90
2018-09-21T18:32:42.945Z,99.90
2018-09-21T18:35:11.241Z,99.90
2018-09-21T18:37:39.560Z,99.90
2018-09-21T18:40:08.076Z,99.90
2018-09-21T18:42:36.396Z,99.90
2018-09-21T18:45:04.698Z,99.90
2018-09-21T18:47:33.009Z,99.90
2018-09-21T18:50:01.308Z,99.90
2018-09-21T18:52:29.627Z,99.90
2018-09-21T18:54:57.920Z,99.90
2018-09-21T18:57:26.233Z,99.90
2018-09-21T18:59:54.528Z,99.90
2018-09-21T19:02:22.841Z,99.90
2018-09-21T19:04:51.131Z,99.90
2018-09-21T19:07:24.964Z,99.90
2018-09-21T19:09:53.252Z,99.90
2018-09-21T19:12:21.568Z,99.90
2018-09-21T19:14:49.864Z,99.90
2018-09-21T19:17:18.189Z,99.90
2018-09-21T19:19:46.488Z,99.90
2018-09-21T19:22:14.840Z,99.90
2018-09-21T19:24:43.244Z,99.90
2018-09-21T19:27:11.561Z,99.90
2018-09-21T19:29:39.852Z,99.90
2018-09-21T19:32:08.188Z,99.90
2018-09-21T19:34:36.484Z,99.90
2018-09-21T19:37:04.811Z,99.90
2018-09-21T19:39:33.156Z,99.90
2018-09-21T19:42:01.451Z,99.90
2018-09-21T19:44:29.760Z,99.90
2018-09-21T19:46:58.049Z,99.90
2018-09-21T19:49:26.354Z,99.90
2018-09-21T19:51:54.660Z,99.90
2018-09-21T19:54:22.963Z,99.90
2018-09-21T19:56:51.255Z,99.90
2018-09-21T19:59:19.571Z,99.90
2018-09-21T20:01:47.872Z,99.90
2018-09-21T20:04:16.191Z,99.90
2018-09-21T20:06:44.487Z,99.90
2018-09-21T20:09:13.164Z,99.90
2018-09-21T20:11:41.948Z,99.90
2018-09-21T20:14:10.271Z,99.90
2018-09-21T20:16:38.576Z,99.90
2018-09-21T20:19:06.896Z,99.90
2018-09-21T20:21:35.200Z,99.90
2018-09-21T20:24:03.512Z,99.90
2018-09-21T20:26:31.810Z,99.90
2018-09-21T20:29:00.138Z,99.90
2018-09-21T20:31:33.892Z,99.90
2018-09-21T20:34:02.208Z,99.90
2018-09-21T20:36:30.500Z,99.90
2018-09-21T20:38:58.827Z,99.90
2018-09-21T20:41:27.127Z,99.90
2018-09-21T20:43:55.439Z,99.90
2018-09-21T20:46:23.731Z,99.90
2018-09-21T20:48:52.044Z,99.90
2018-09-21T20:51:20.336Z,99.90
2018-09-21T20:53:48.662Z,99.90
2018-09-21T20:56:16.956Z,99.90
2018-09-21T20:58:45.275Z,99.90
2018-09-21T21:01:13.568Z,99.90
2018-09-21T21:03:41.884Z,99.90
2018-09-21T21:06:10.188Z,99.90
2018-09-21T21:08:38.512Z,99.90
2018-09-21T21:11:06.819Z,99.90
2018-09-21T21:13:35.136Z,99.90
2018-09-21T21:16:03.427Z,99.90
2018-09-21T21:18:31.748Z,99.90
2018-09-21T21:21:00.046Z,99.90
2018-09-21T21:23:28.373Z,99.90
2018-09-21T21:25:56.684Z,99.90
2018-09-21T21:28:25.004Z,99.90
2018-09-21T21:30:53.299Z,99.90
2018-09-21T21:33:21.857Z,99.90
2018-09-21T21:35:50.466Z,99.90
2018-09-21T21:38:19.185Z,99.90
2018-09-21T21:40:47.535Z,99.90
2018-09-21T21:43:15.908Z,99.90
2018-09-21T21:45:44.190Z,99.90
2018-09-21T21:48:12.498Z,99.90
2018-09-21T21:50:40.851Z,99.90
2018-09-21T21:53:09.151Z,99.90
2018-09-21T21:55:37.463Z,99.90
2018-09-21T21:58:05.898Z,99.90
2018-09-21T22:00:39.588Z,99.90
2018-09-21T22:03:07.896Z,99.90
2018-09-21T22:05:36.205Z,99.90
2018-09-21T22:08:04.524Z,99.90
2018-09-21T22:10:32.842Z,99.90
2018-09-21T22:13:06.576Z,99.90
2018-09-21T22:15:34.892Z,99.90
2018-09-21T22:18:03.179Z,99.90
2018-09-21T22:20:31.483Z,99.90
2018-09-21T22:22:59.780Z,99.90
2018-09-21T22:25:28.095Z,99.90
2018-09-21T22:27:56.393Z,99.90
2018-09-21T22:30:24.704Z,99.90
2018-09-21T22:32:52.992Z,99.90
2018-09-21T22:35:21.300Z,99.90
2018-09-21T22:37:49.592Z,99.90
2018-09-21T22:40:17.924Z,99.90
2018-09-21T22:42:46.243Z,99.90
2018-09-21T22:45:14.620Z,99.90
2018-09-21T22:47:42.893Z,99.90
2018-09-21T22:50:11.208Z,99.90
2018-09-21T22:52:39.504Z,99.90
2018-09-21T22:55:07.816Z,99.90
2018-09-21T22:57:36.112Z,99.90
2018-09-21T23:00:04.660Z,99.90
2018-09-21T23:02:32.947Z,99.90
2018-09-21T23:05:01.261Z,99.90
2018-09-21T23:07:29.552Z,99.90
2018-09-21T23:09:57.859Z,99.90
2018-09-21T23:12:26.153Z,99.90
2018-09-21T23:14:54.466Z,99.90
2018-09-21T23:17:22.756Z,99.90
2018-09-21T23:19:51.072Z,99.90
2018-09-21T23:22:19.366Z,99.90
2018-09-21T23:24:47.673Z,99.90
2018-09-21T23:27:15.988Z,99.90
2018-09-21T23:29:44.304Z,99.90
2018-09-21T23:32:12.596Z,99.90
2018-09-21T23:34:40.917Z,99.90
2018-09-21T23:37:09.232Z,99.90
2018-09-21T23:39:37.536Z,99.90
2018-09-21T23:42:05.848Z,99.90
2018-09-21T23:44:34.139Z,99.90
2018-09-21T23:47:02.448Z,99.90
2018-09-21T23:49:30.756Z,99.90
2018-09-21T23:51:59.077Z,99.90
2018-09-21T23:54:27.416Z,99.90
2018-09-21T23:56:55.711Z,99.90
2018-09-21T23:59:23.999Z,99.90
